Trujillo, Peru
Current Conditions -  °F | °C
As of 12:00 PM on Monday 22 Dec 2014 (Local Time) from SPRU Reporting Station
Few Clouds Few Clouds  
Wind Chill: 70°   Ceiling: Unl
Heat Index: 70°   Visibility: 6mi
Dew Point: 63°   Wind: 15mph
Humidity: 78%   Direction: 140°SE
Pressure: 29.88"   Gusts: NA
Location:  8.11°S, 79.03°W
Report Text: SPRU 221700Z 14013KT 9999 FEW040 21/17 Q1012 RMK PP000
Loading
Personal Weather Stations






























Interactive Weather Map New forecast layout! Learn more

10-Day Weather Forecast

Advertisements
Track Severe Weather on mobile